createdAt,value
2018-11-01T00:00:53.566Z,100535.30
2018-11-01T00:03:23.016Z,100540.00
2018-11-01T00:05:53.444Z,100536.78
2018-11-01T00:08:23.393Z,100522.94
2018-11-01T00:10:53.188Z,100521.32
2018-11-01T00:13:22.758Z,100528.00
2018-11-01T00:15:52.847Z,100529.77
2018-11-01T00:18:22.398Z,100528.09
2018-11-01T00:20:52.295Z,100544.64
2018-11-01T00:23:21.578Z,100548.70
2018-11-01T00:25:51.944Z,100559.08
2018-11-01T00:28:21.813Z,100561.79
2018-11-01T00:30:51.302Z,100552.08
2018-11-01T00:33:21.075Z,100548.13
2018-11-01T00:35:50.524Z,100541.13
2018-11-01T00:38:20.479Z,100534.98
2018-11-01T00:40:49.959Z,100533.66
2018-11-01T00:43:20.104Z,100533.55
2018-11-01T00:45:49.984Z,100529.13
2018-11-01T00:48:19.539Z,100551.45
2018-11-01T00:50:48.981Z,100545.55
2018-11-01T00:53:19.131Z,100552.50
2018-11-01T00:55:48.623Z,100556.55
2018-11-01T00:58:18.213Z,100551.15
2018-11-01T01:00:48.420Z,100547.81
2018-11-01T01:03:17.939Z,100559.97
2018-11-01T01:05:47.446Z,100567.03
2018-11-01T01:08:17.601Z,100559.41
2018-11-01T01:10:47.182Z,100435.89
2018-11-01T01:13:16.559Z,100576.72
2018-11-01T01:15:46.070Z,100577.83
2018-11-01T01:18:16.255Z,100566.47
2018-11-01T01:20:46.166Z,100545.41
2018-11-01T01:23:16.703Z,100551.05
2018-11-01T01:25:46.619Z,100543.88
2018-11-01T01:28:16.919Z,100548.77
2018-11-01T01:30:46.209Z,100553.13
2018-11-01T01:33:15.710Z,100549.77
2018-11-01T01:35:45.363Z,100545.68
2018-11-01T01:38:15.186Z,100548.55
2018-11-01T01:40:44.890Z,100543.52
2018-11-01T01:43:15.351Z,100548.08
2018-11-01T01:45:45.397Z,100548.94
2018-11-01T01:48:15.071Z,100550.12
2018-11-01T01:50:45.192Z,100541.97
2018-11-01T01:53:15.072Z,100552.17
2018-11-01T01:55:44.927Z,100538.87
2018-11-01T01:58:14.442Z,100536.96
2018-11-01T02:00:44.908Z,100537.42
2018-11-01T02:03:14.497Z,100530.49
2018-11-01T02:05:44.015Z,100537.20
2018-11-01T02:08:14.314Z,100535.05
2018-11-01T02:10:44.464Z,100526.91
2018-11-01T02:13:13.943Z,100526.52
2018-11-01T02:15:43.403Z,100528.80
2018-11-01T02:18:13.391Z,100524.50
2018-11-01T02:20:43.623Z,100523.19
2018-11-01T02:23:13.218Z,100520.30
2018-11-01T02:25:42.727Z,100527.50
2018-11-01T02:28:16.900Z,100531.07
2018-11-01T02:30:46.415Z,100526.05
2018-11-01T02:33:15.879Z,100532.88
2018-11-01T02:35:45.637Z,100533.25
2018-11-01T02:38:16.209Z,100527.84
2018-11-01T02:40:45.865Z,100538.34
2018-11-01T02:43:15.367Z,100530.66
2018-11-01T02:45:45.706Z,100533.08
2018-11-01T02:48:14.953Z,100532.33
2018-11-01T02:50:44.858Z,100525.54
2018-11-01T02:53:14.367Z,100519.20
2018-11-01T02:55:43.899Z,100518.34
2018-11-01T02:58:13.410Z,100517.60
2018-11-01T03:00:42.751Z,100519.77
2018-11-01T03:03:12.395Z,100525.75
2018-11-01T03:05:42.107Z,100527.59
2018-11-01T03:08:11.613Z,100525.67
2018-11-01T03:10:41.590Z,100518.95
2018-11-01T03:13:11.422Z,100515.61
2018-11-01T03:15:41.099Z,100511.30
2018-11-01T03:18:11.273Z,100511.80
2018-11-01T03:20:41.571Z,100511.08
2018-11-01T03:23:11.292Z,100511.44
2018-11-01T03:25:41.129Z,100516.00
2018-11-01T03:28:10.535Z,100517.78
2018-11-01T03:30:40.618Z,100508.67
2018-11-01T03:33:10.380Z,100501.48
2018-11-01T03:35:39.866Z,100491.91
2018-11-01T03:38:11.134Z,100487.60
2018-11-01T03:40:40.627Z,100474.91
2018-11-01T03:43:10.071Z,100466.78
2018-11-01T03:45:40.474Z,100461.97
2018-11-01T03:48:10.515Z,100458.40
2018-11-01T03:50:39.803Z,100456.47
2018-11-01T03:53:10.159Z,100451.81
2018-11-01T03:55:39.923Z,100455.39
2018-11-01T03:58:09.670Z,100456.00
2018-11-01T04:00:39.197Z,100461.97
2018-11-01T04:03:09.193Z,100456.70
2018-11-01T04:05:39.239Z,100464.75
2018-11-01T04:08:09.375Z,100470.24
2018-11-01T04:10:39.683Z,100473.80
2018-11-01T04:13:09.527Z,100481.70
2018-11-01T04:15:38.904Z,100490.95
2018-11-01T04:18:09.235Z,100490.95
2018-11-01T04:20:39.201Z,100485.22
2018-11-01T04:23:08.531Z,100480.65
2018-11-01T04:25:38.768Z,100491.91
2018-11-01T04:28:08.083Z,100501.59
2018-11-01T04:30:38.547Z,100508.28
2018-11-01T04:33:07.742Z,100500.59
2018-11-01T04:35:37.211Z,100494.98
2018-11-01T04:38:06.752Z,100493.45
2018-11-01T04:40:36.015Z,100482.38
2018-11-01T04:43:05.974Z,100462.98
2018-11-01T04:45:35.748Z,100456.87
2018-11-01T04:48:06.659Z,100452.42
2018-11-01T04:50:36.070Z,100467.14
2018-11-01T04:53:05.448Z,100471.33
2018-11-01T04:55:35.146Z,100465.58
2018-11-01T04:58:05.000Z,100459.80
2018-11-01T05:00:34.870Z,100456.25
2018-11-01T05:03:04.898Z,100465.11
2018-11-01T05:05:34.505Z,100466.42
2018-11-01T05:08:04.436Z,100464.31
2018-11-01T05:10:34.175Z,100459.25
2018-11-01T05:13:04.026Z,100460.46
2018-11-01T05:15:33.750Z,100463.90
2018-11-01T05:18:03.335Z,100467.84
2018-11-01T05:20:32.588Z,100471.34
2018-11-01T05:23:02.562Z,100461.98
2018-11-01T05:25:31.990Z,100451.96
2018-11-01T05:28:01.947Z,100444.92
2018-11-01T05:30:31.410Z,100443.75
2018-11-01T05:33:02.237Z,100440.63
2018-11-01T05:35:31.875Z,100438.09
2018-11-01T05:38:02.095Z,100439.41
2018-11-01T05:40:31.687Z,100445.59
2018-11-01T05:43:01.267Z,100442.29
2018-11-01T05:45:30.701Z,100439.97
2018-11-01T05:48:00.631Z,100436.74
2018-11-01T05:50:30.534Z,100435.17
2018-11-01T05:53:00.039Z,100423.02
2018-11-01T05:55:29.754Z,100424.09
2018-11-01T05:57:59.478Z,100426.61
2018-11-01T06:00:28.962Z,100444.72
2018-11-01T06:02:59.107Z,100451.99
2018-11-01T06:05:29.438Z,100459.43
2018-11-01T06:08:02.455Z,100464.62
2018-11-01T06:10:32.111Z,100469.64
2018-11-01T06:13:01.475Z,100478.14
2018-11-01T06:15:30.899Z,100483.98
2018-11-01T06:18:00.425Z,100471.73
2018-11-01T06:20:29.991Z,100468.29
2018-11-01T06:22:59.860Z,100467.50
2018-11-01T06:25:29.536Z,100471.70
2018-11-01T06:27:59.067Z,100477.67
2018-11-01T06:30:29.252Z,100480.99
2018-11-01T06:32:59.472Z,100492.48
2018-11-01T06:35:38.559Z,100490.47
2018-11-01T06:38:08.124Z,100479.72
2018-11-01T06:40:37.819Z,100479.26
2018-11-01T06:43:07.325Z,100478.98
2018-11-01T06:45:37.085Z,100471.55
2018-11-01T06:48:07.555Z,100478.27
2018-11-01T06:50:37.715Z,100471.34
2018-11-01T06:53:07.823Z,100465.73
2018-11-01T06:55:37.592Z,100464.81
2018-11-01T06:58:07.556Z,100462.78
2018-11-01T07:00:37.590Z,100465.62
2018-11-01T07:03:07.462Z,100469.86
2018-11-01T07:05:38.080Z,100472.95
2018-11-01T07:08:07.756Z,100476.44
2018-11-01T07:10:37.411Z,100476.19
2018-11-01T07:13:07.163Z,100473.55
2018-11-01T07:15:37.004Z,100476.55
2018-11-01T07:18:06.543Z,100472.03
2018-11-01T07:20:36.082Z,100466.38
2018-11-01T07:23:06.173Z,100464.81
2018-11-01T07:25:35.869Z,100464.81
2018-11-01T07:28:05.811Z,100464.56
2018-11-01T07:30:35.523Z,100450.47
2018-11-01T07:33:05.775Z,100450.58
2018-11-01T07:35:35.585Z,100458.75
2018-11-01T07:38:05.591Z,100454.33
2018-11-01T07:40:35.827Z,100450.48
2018-11-01T07:43:05.922Z,100450.97
2018-11-01T07:45:35.421Z,100445.84
2018-11-01T07:48:05.348Z,100437.94
2018-11-01T07:50:34.620Z,100442.96
2018-11-01T07:53:04.953Z,100451.44
2018-11-01T07:55:35.183Z,100459.23
2018-11-01T07:58:05.833Z,100455.98
2018-11-01T08:00:36.082Z,100453.58
2018-11-01T08:03:05.868Z,100452.38
2018-11-01T08:05:35.609Z,100454.37
2018-11-01T08:08:05.376Z,100446.36
2018-11-01T08:10:34.986Z,100432.80
2018-11-01T08:13:05.424Z,100423.78
2018-11-01T08:15:34.819Z,100419.45
2018-11-01T08:18:05.209Z,100412.86
2018-11-01T08:20:36.452Z,100418.07
2018-11-01T08:23:06.453Z,100413.53
2018-11-01T08:25:36.499Z,100412.61
2018-11-01T08:28:06.834Z,100412.26
2018-11-01T08:30:37.170Z,100416.29
2018-11-01T08:33:07.265Z,100412.26
2018-11-01T08:35:36.951Z,100414.81
2018-11-01T08:38:07.371Z,100415.39
2018-11-01T08:40:36.873Z,100414.39
2018-11-01T08:43:06.756Z,100415.75
2018-11-01T08:45:37.795Z,100418.88
2018-11-01T08:48:08.298Z,100423.45
2018-11-01T08:50:37.706Z,100421.03
2018-11-01T08:53:07.398Z,100416.34
2018-11-01T08:55:37.778Z,100406.34
2018-11-01T08:58:07.275Z,100400.31
2018-11-01T09:00:37.038Z,100405.20
2018-11-01T09:03:06.671Z,100402.28
2018-11-01T09:05:37.015Z,100396.30
2018-11-01T09:08:07.176Z,100395.38
2018-11-01T09:10:37.016Z,100392.96
2018-11-01T09:13:07.372Z,100385.42
2018-11-01T09:15:36.862Z,100388.31
2018-11-01T09:18:07.214Z,100396.97
2018-11-01T09:20:37.418Z,100396.98
2018-11-01T09:23:07.467Z,100402.93
2018-11-01T09:25:36.891Z,100405.10
2018-11-01T09:28:06.602Z,100401.08
2018-11-01T09:30:37.026Z,100415.36
2018-11-01T09:33:07.139Z,100422.28
2018-11-01T09:35:37.273Z,100425.73
2018-11-01T09:38:07.008Z,100438.14
2018-11-01T09:40:37.449Z,100431.65
2018-11-01T09:43:06.736Z,100426.55
2018-11-01T09:45:36.385Z,100427.85
2018-11-01T09:48:06.398Z,100422.19
2018-11-01T09:50:36.548Z,100418.62
2018-11-01T09:53:06.605Z,100422.53
2018-11-01T09:55:35.887Z,100429.80
2018-11-01T09:58:05.220Z,100432.93
2018-11-01T10:00:34.507Z,100430.27
2018-11-01T10:03:03.819Z,100438.75
2018-11-01T10:05:34.000Z,100444.51
2018-11-01T10:08:03.253Z,100451.02
2018-11-01T10:10:33.163Z,100445.74
2018-11-01T10:13:03.480Z,100442.39
2018-11-01T10:15:33.686Z,100442.80
2018-11-01T10:18:03.673Z,100450.48
2018-11-01T10:20:32.809Z,100443.56
2018-11-01T10:23:02.353Z,100438.70
2018-11-01T10:25:32.147Z,100427.98
2018-11-01T10:28:01.545Z,100419.14
2018-11-01T10:30:31.056Z,100410.22
2018-11-01T10:33:00.937Z,100404.28
2018-11-01T10:35:31.176Z,100396.04
2018-11-01T10:38:00.856Z,100393.47
2018-11-01T10:40:30.682Z,100394.48
2018-11-01T10:43:00.714Z,100387.37
2018-11-01T10:45:31.655Z,100384.21
2018-11-01T10:48:01.038Z,100386.72
2018-11-01T10:50:31.392Z,100374.57
2018-11-01T10:53:00.860Z,100370.94
2018-11-01T10:55:30.583Z,100358.06
2018-11-01T10:58:00.278Z,100356.05
2018-11-01T11:00:34.934Z,100348.24
2018-11-01T11:03:04.344Z,100339.55
2018-11-01T11:05:33.944Z,100343.45
2018-11-01T11:08:03.632Z,100340.91
2018-11-01T11:10:33.374Z,100350.83
2018-11-01T11:13:03.223Z,100355.48
2018-11-01T11:15:33.746Z,100352.60
2018-11-01T11:18:03.486Z,100354.84
2018-11-01T11:20:34.262Z,100368.34
2018-11-01T11:23:03.569Z,100360.50
2018-11-01T11:25:33.371Z,100357.79
2018-11-01T11:28:03.494Z,100361.46
2018-11-01T11:30:33.697Z,100363.87
2018-11-01T11:33:03.207Z,100370.55
2018-11-01T11:35:33.197Z,100378.14
2018-11-01T11:38:07.328Z,100379.94
2018-11-01T11:40:37.006Z,100384.33
2018-11-01T11:43:06.571Z,100378.05
2018-11-01T11:45:37.050Z,100384.06
2018-11-01T11:48:07.192Z,100385.51
2018-11-01T11:50:37.203Z,100378.52
2018-11-01T11:53:07.021Z,100389.25
2018-11-01T11:55:36.554Z,100393.14
2018-11-01T11:58:06.206Z,100383.82
2018-11-01T12:00:35.710Z,100390.71
2018-11-01T12:03:05.499Z,100384.78
2018-11-01T12:05:35.303Z,100380.49
2018-11-01T12:08:05.283Z,100380.42
2018-11-01T12:10:35.160Z,100372.66
2018-11-01T12:13:04.723Z,100368.69
2018-11-01T12:15:34.327Z,100360.14
2018-11-01T12:18:03.670Z,100360.50
2018-11-01T12:20:33.986Z,100356.92
2018-11-01T12:23:03.955Z,100357.79
2018-11-01T12:25:34.290Z,100345.06
2018-11-01T12:28:04.348Z,100339.11
2018-11-01T12:30:34.228Z,100345.53
2018-11-01T12:33:04.034Z,100342.55
2018-11-01T12:35:33.733Z,100343.48
2018-11-01T12:38:03.287Z,100343.62
2018-11-01T12:40:32.587Z,100340.05
2018-11-01T12:43:02.090Z,100340.80
2018-11-01T12:45:32.160Z,100335.86
2018-11-01T12:48:01.884Z,100333.88
2018-11-01T12:50:31.387Z,100336.19
2018-11-01T12:53:01.103Z,100339.38
2018-11-01T12:55:30.709Z,100339.59
2018-11-01T12:58:00.148Z,100352.84
2018-11-01T13:00:30.071Z,100355.98
2018-11-01T13:02:59.387Z,100360.41
2018-11-01T13:05:29.021Z,100359.48
2018-11-01T13:07:58.308Z,100376.18
2018-11-01T13:10:27.773Z,100371.39
2018-11-01T13:12:57.222Z,100370.08
2018-11-01T13:15:26.501Z,100376.03
2018-11-01T13:17:55.947Z,100373.70
2018-11-01T13:20:25.209Z,100374.31
2018-11-01T13:22:54.536Z,100376.91
2018-11-01T13:25:23.845Z,100369.75
2018-11-01T13:27:53.147Z,100369.19
2018-11-01T13:30:22.421Z,100368.66
2018-11-01T13:32:51.727Z,100369.05
2018-11-01T13:35:21.190Z,100384.12
2018-11-01T13:37:50.439Z,100388.70
2018-11-01T13:40:20.002Z,100392.02
2018-11-01T13:42:48.927Z,100393.70
2018-11-01T13:45:18.313Z,100389.92
2018-11-01T13:47:47.631Z,100383.07
2018-11-01T13:50:16.905Z,100389.26
2018-11-01T13:52:46.121Z,100398.53
2018-11-01T13:55:15.488Z,100392.58
2018-11-01T13:57:45.366Z,100396.80
2018-11-01T14:00:15.547Z,100385.66
2018-11-01T14:02:45.048Z,100379.94
2018-11-01T14:05:15.579Z,100393.22
2018-11-01T14:07:45.850Z,100392.02
2018-11-01T14:10:16.310Z,100395.78
2018-11-01T14:12:46.349Z,100404.54
2018-11-01T14:15:15.924Z,100407.22
2018-11-01T14:17:44.982Z,100404.41
2018-11-01T14:20:15.027Z,100409.77
2018-11-01T14:22:44.631Z,100415.21
2018-11-01T14:25:14.169Z,100419.05
2018-11-01T14:27:43.672Z,100422.81
2018-11-01T14:30:14.542Z,100421.96
2018-11-01T14:32:43.885Z,100419.31
2018-11-01T14:35:13.756Z,100420.25
2018-11-01T14:37:43.178Z,100415.84
2018-11-01T14:40:13.594Z,100417.05
2018-11-01T14:42:42.943Z,100419.13
2018-11-01T14:45:12.327Z,100417.23
2018-11-01T14:47:41.737Z,100415.59
2018-11-01T14:50:11.682Z,100424.56
2018-11-01T14:52:41.299Z,100417.81
2018-11-01T14:55:11.752Z,100418.71
2018-11-01T14:57:42.029Z,100411.80
2018-11-01T15:00:10.778Z,100416.06
2018-11-01T15:02:40.624Z,100414.23
2018-11-01T15:05:10.951Z,100410.48
2018-11-01T15:07:40.962Z,100404.70
2018-11-01T15:10:12.943Z,100406.80
2018-11-01T15:12:43.431Z,100402.95
2018-11-01T15:15:13.529Z,100397.45
2018-11-01T15:17:43.414Z,100398.01
2018-11-01T15:20:13.866Z,100405.82
2018-11-01T15:22:43.812Z,100401.38
2018-11-01T15:25:13.382Z,100395.70
2018-11-01T15:27:42.876Z,100397.96
2018-11-01T15:30:14.651Z,100388.95
2018-11-01T15:32:50.939Z,100384.25
2018-11-01T15:35:20.376Z,100374.83
2018-11-01T15:37:50.540Z,100378.05
2018-11-01T15:40:20.003Z,100375.20
2018-11-01T15:42:49.666Z,100375.03
2018-11-01T15:45:19.143Z,100377.50
2018-11-01T15:47:49.169Z,100380.64
2018-11-01T15:50:19.009Z,100379.39
2018-11-01T15:52:48.750Z,100376.59
2018-11-01T15:55:18.398Z,100371.45
2018-11-01T15:57:47.995Z,100368.08
2018-11-01T16:00:17.317Z,100354.80
2018-11-01T16:02:47.444Z,100356.94
2018-11-01T16:05:16.883Z,100347.63
2018-11-01T16:07:46.779Z,100348.30
2018-11-01T16:10:17.300Z,100341.77
2018-11-01T16:12:46.644Z,100344.47
2018-11-01T16:15:17.569Z,100345.63
2018-11-01T16:17:47.267Z,100343.50
2018-11-01T16:20:16.876Z,100358.59
2018-11-01T16:22:46.494Z,100316.20
2018-11-01T16:25:16.124Z,100342.64
2018-11-01T16:27:45.741Z,100344.59
2018-11-01T16:30:15.615Z,100344.69
2018-11-01T16:32:46.117Z,100336.02
2018-11-01T16:35:15.682Z,100342.37
2018-11-01T16:37:45.532Z,100343.91
2018-11-01T16:40:15.095Z,100352.41
2018-11-01T16:42:44.734Z,100363.19
2018-11-01T16:45:15.737Z,100376.24
2018-11-01T16:47:45.562Z,100375.21
2018-11-01T16:50:15.107Z,100378.64
2018-11-01T16:52:44.889Z,100380.66
2018-11-01T16:55:14.955Z,100376.84
2018-11-01T16:57:44.851Z,100386.94
2018-11-01T17:00:14.621Z,100397.08
2018-11-01T17:02:43.941Z,100401.20
2018-11-01T17:05:13.865Z,100409.13
2018-11-01T17:07:43.403Z,100416.81
2018-11-01T17:10:14.163Z,100422.88
2018-11-01T17:12:43.795Z,100423.89
2018-11-01T17:15:15.747Z,100427.41
2018-11-01T17:17:45.901Z,100432.36
2018-11-01T17:20:15.773Z,100433.11
2018-11-01T17:22:45.712Z,100431.54
2018-11-01T17:25:15.204Z,100433.96
2018-11-01T17:27:45.591Z,100440.48
2018-11-01T17:30:15.778Z,100439.44
2018-11-01T17:32:49.656Z,100444.50
2018-11-01T17:35:19.092Z,100444.69
2018-11-01T17:37:48.822Z,100438.48
2018-11-01T17:40:19.007Z,100443.48
2018-11-01T17:42:48.501Z,100453.56
2018-11-01T17:45:18.949Z,100457.16
2018-11-01T17:47:48.780Z,100454.29
2018-11-01T17:50:18.285Z,100452.67
2018-11-01T17:52:48.350Z,100452.28
2018-11-01T17:55:17.650Z,100449.47
2018-11-01T17:57:46.969Z,100443.59
2018-11-01T18:00:16.838Z,100440.50
2018-11-01T18:02:46.502Z,100438.83
2018-11-01T18:05:16.632Z,100437.51
2018-11-01T18:07:46.207Z,100447.98
2018-11-01T18:10:15.954Z,100461.81
2018-11-01T18:12:46.379Z,100466.35
2018-11-01T18:15:15.946Z,100469.47
2018-11-01T18:17:45.468Z,100460.22
2018-11-01T18:20:14.967Z,100467.33
2018-11-01T18:22:45.157Z,100461.34
2018-11-01T18:25:16.580Z,100465.03
2018-11-01T18:27:47.195Z,100467.33
2018-11-01T18:30:17.787Z,100457.41
2018-11-01T18:32:47.924Z,100462.69
2018-11-01T18:35:17.955Z,100467.55
2018-11-01T18:37:47.640Z,100474.05
2018-11-01T18:40:19.404Z,100466.59
2018-11-01T18:42:49.359Z,100476.58
2018-11-01T18:45:20.235Z,100474.51
2018-11-01T18:47:49.963Z,100482.61
2018-11-01T18:50:19.831Z,100475.88
2018-11-01T18:52:49.500Z,100463.77
2018-11-01T18:55:19.425Z,100461.94
2018-11-01T18:57:49.207Z,100456.43
2018-11-01T19:00:19.347Z,100463.48
2018-11-01T19:02:49.135Z,100454.18
2018-11-01T19:05:18.751Z,100445.88
2018-11-01T19:07:48.616Z,100443.30
2018-11-01T19:10:18.827Z,100439.17
2018-11-01T19:12:48.756Z,100438.12
2018-11-01T19:15:19.262Z,100448.82
2018-11-01T19:17:49.555Z,100436.82
2018-11-01T19:20:18.839Z,100450.61
2018-11-01T19:22:48.711Z,100450.95
2018-11-01T19:25:18.287Z,100445.98
2018-11-01T19:27:47.970Z,100453.50
2018-11-01T19:30:17.530Z,100457.06
2018-11-01T19:32:47.174Z,100456.16
2018-11-01T19:35:19.575Z,100455.94
2018-11-01T19:37:49.043Z,100461.25
2018-11-01T19:40:19.308Z,100459.44
2018-11-01T19:42:49.119Z,100457.89
2018-11-01T19:45:18.620Z,100465.75
2018-11-01T19:47:48.835Z,100475.26
2018-11-01T19:50:18.276Z,100472.61
2018-11-01T19:52:47.567Z,100473.06
2018-11-01T19:55:17.048Z,100484.93
2018-11-01T19:57:46.526Z,100486.39
2018-11-01T20:00:17.284Z,100489.17
2018-11-01T20:02:47.898Z,100492.65
2018-11-01T20:05:17.210Z,100489.52
2018-11-01T20:07:47.004Z,100492.81
2018-11-01T20:10:16.610Z,100494.13
2018-11-01T20:12:45.887Z,100496.77
2018-11-01T20:15:15.158Z,100514.22
2018-11-01T20:17:44.459Z,100514.34
2018-11-01T20:20:14.079Z,100509.60
2018-11-01T20:22:44.348Z,100520.83
2018-11-01T20:25:13.635Z,100525.24
2018-11-01T20:27:43.152Z,100526.02
2018-11-01T20:30:13.754Z,100525.33
2018-11-01T20:32:43.763Z,100535.77
2018-11-01T20:35:14.921Z,100539.97
2018-11-01T20:37:45.227Z,100531.19
2018-11-01T20:40:14.534Z,100527.89
2018-11-01T20:42:44.251Z,100529.63
2018-11-01T20:45:14.108Z,100527.34
2018-11-01T20:47:43.472Z,100527.00
2018-11-01T20:50:13.556Z,100534.66
2018-11-01T20:52:42.853Z,100536.19
2018-11-01T20:55:12.331Z,100535.70
2018-11-01T20:57:41.727Z,100538.50
2018-11-01T21:00:12.958Z,100532.52
2018-11-01T21:02:42.481Z,100535.17
2018-11-01T21:05:12.012Z,100547.37
2018-11-01T21:07:41.035Z,100553.73
2018-11-01T21:10:10.937Z,100549.59
2018-11-01T21:12:40.943Z,100561.11
2018-11-01T21:15:11.776Z,100554.88
2018-11-01T21:17:41.215Z,100556.52
2018-11-01T21:20:10.679Z,100560.50
2018-11-01T21:22:40.180Z,100557.91
2018-11-01T21:25:10.838Z,100568.38
2018-11-01T21:27:40.203Z,100575.97
2018-11-01T21:30:10.279Z,100575.38
2018-11-01T21:32:39.608Z,100576.41
2018-11-01T21:35:09.336Z,100585.27
2018-11-01T21:37:38.686Z,100580.47
2018-11-01T21:40:09.414Z,100591.97
2018-11-01T21:42:38.773Z,100588.45
2018-11-01T21:45:09.993Z,100585.12
2018-11-01T21:47:40.126Z,100594.74
2018-11-01T21:50:10.080Z,100587.22
2018-11-01T21:52:39.668Z,100596.55
2018-11-01T21:55:09.557Z,100591.69
2018-11-01T21:57:38.937Z,100591.46
2018-11-01T22:00:10.364Z,100590.86
2018-11-01T22:02:40.540Z,100593.41
2018-11-01T22:05:11.190Z,100603.05
2018-11-01T22:07:41.055Z,100592.52
2018-11-01T22:10:11.564Z,100585.98
2018-11-01T22:12:41.181Z,100585.14
2018-11-01T22:15:12.302Z,100591.09
2018-11-01T22:17:42.554Z,100600.97
2018-11-01T22:20:12.903Z,100597.38
2018-11-01T22:22:42.813Z,100604.34
2018-11-01T22:25:14.023Z,100613.06
2018-11-01T22:27:43.447Z,100617.27
2018-11-01T22:30:13.364Z,100618.84
2018-11-01T22:32:43.340Z,100627.78
2018-11-01T22:35:13.335Z,100634.84
2018-11-01T22:37:43.221Z,100633.37
2018-11-01T22:40:13.424Z,100632.61
2018-11-01T22:42:43.195Z,100636.38
2018-11-01T22:45:13.580Z,100626.80
2018-11-01T22:47:43.628Z,100632.88
2018-11-01T22:50:13.121Z,100633.94
2018-11-01T22:52:42.605Z,100628.98
2018-11-01T22:55:12.919Z,100635.18
2018-11-01T22:57:43.696Z,100638.69
2018-11-01T23:00:15.969Z,100637.36
2018-11-01T23:02:45.902Z,100629.87
2018-11-01T23:05:15.962Z,100633.77
2018-11-01T23:07:45.211Z,100625.43
2018-11-01T23:10:16.203Z,100642.45
2018-11-01T23:12:46.854Z,100638.39
2018-11-01T23:15:16.811Z,100648.44
2018-11-01T23:17:46.683Z,100650.95
2018-11-01T23:20:16.549Z,100650.10
2018-11-01T23:22:46.093Z,100657.50
2018-11-01T23:25:16.788Z,100666.52
2018-11-01T23:27:46.294Z,100661.00
2018-11-01T23:30:16.190Z,100667.98
2018-11-01T23:32:45.748Z,100666.52
2018-11-01T23:35:15.443Z,100671.18
2018-11-01T23:37:50.774Z,100671.83
2018-11-01T23:40:25.693Z,100677.13
2018-11-01T23:43:00.693Z,100684.57
2018-11-01T23:45:36.123Z,100687.01
2018-11-01T23:48:05.007Z,100692.52
2018-11-01T23:51:12.589Z,100695.59
2018-11-01T23:53:45.298Z,100695.34
2018-11-01T23:56:15.177Z,100701.75
2018-11-01T23:58:45.098Z,100691.06
